Dagsboro, Delaware
Current Conditions -  °F | °C
As of 6:54 PM on Wednesday 26 Nov 2014 (Local Time) from KGED Reporting Station
Overcast Overcast  
Wind Chill: 29°   Ceiling: 1000
Heat Index: 37°   Visibility: 8mi
Dew Point: 35°   Wind: 12mph
Humidity: 93%   Direction: 320°NW
Pressure: 29.87"   Gusts: 20mph
Location:  38.55°N, 75.25°W
Report Text: KGED 262354Z AUTO 32010G17KT 8SM OVC010 03/02 A2987 RMK AO2 RAE24UPB32E54SNB2258E00 CIG 007V012 SLP114 P0000 60035 T00280017 10050 20028 51043
Loading
Personal Weather Stations






























Interactive Weather Map New forecast layout! Learn more

10-Day Weather Forecast

Advertisements
Track Severe Weather on mobile